Time;durP1;ratioP1;P1;durP2;ratioP2;P2;SDS_P1;SDS_P2;PMS_P1;PMS_P2;Temp;Humidity;BMP_temperature;BMP_pressure;BME280_temperature;BME280_humidity;BME280_pressure;Samples;Min_cycle;Max_cycle;Signal;HPM_P1;HPM_P2
2022/06/01 00:00:08;;;;;;;1.50;1.15;;;22.00;56.50;;;;;;5053641;28;20666;-79
2022/06/01 00:02:37;;;;;;;1.35;0.70;;;22.00;56.60;;;;;;5053833;28;20270;-79
2022/06/01 00:05:05;;;;;;;2.47;0.90;;;21.90;56.60;;;;;;5053358;28;20228;-78
2022/06/01 00:07:32;;;;;;;0.60;0.60;;;22.00;56.70;;;;;;5053644;28;20775;-78
2022/06/01 00:09:59;;;;;;;0.70;0.70;;;22.00;56.70;;;;;;5053681;28;20569;-78
2022/06/01 00:12:29;;;;;;;0.70;0.70;;;22.00;56.80;;;;;;5053402;28;20235;-78
2022/06/01 00:14:56;;;;;;;0.70;0.70;;;22.00;56.90;;;;;;5053592;28;20220;-79
2022/06/01 00:17:24;;;;;;;1.45;1.00;;;22.00;56.90;;;;;;5053010;28;20581;-79
2022/06/01 00:19:53;;;;;;;0.57;0.52;;;22.00;57.00;;;;;;5053627;28;20208;-79
2022/06/01 00:22:19;;;;;;;1.30;1.00;;;22.00;57.00;;;;;;5053225;28;20557;-79
2022/06/01 00:24:48;;;;;;;8.85;1.00;;;22.00;57.10;;;;;;5053425;28;20220;-79
2022/06/01 00:27:16;;;;;;;2.60;0.93;;;22.00;57.20;;;;;;5053559;28;20634;-79
2022/06/01 00:29:43;;;;;;;4.82;0.88;;;22.00;57.30;;;;;;5053679;28;20258;-79
2022/06/01 00:32:12;;;;;;;3.13;0.65;;;21.90;57.30;;;;;;5053465;28;20291;-79
2022/06/01 00:34:39;;;;;;;1.45;1.00;;;22.00;57.40;;;;;;5053650;28;20307;-79
2022/06/01 00:37:08;;;;;;;4.68;1.10;;;22.00;57.60;;;;;;5053266;28;20216;-79
2022/06/01 00:39:36;;;;;;;4.28;1.00;;;22.00;57.70;;;;;;5053332;28;20200;-78
2022/06/01 00:42:10;;;;;;;5.22;1.27;;;22.00;58.30;;;;;;5053052;28;20736;-78
2022/06/01 00:44:37;;;;;;;1.52;0.95;;;22.00;57.90;;;;;;5052898;28;20774;-78
2022/06/01 00:47:05;;;;;;;3.17;0.88;;;22.00;58.00;;;;;;5052986;28;20235;-78
2022/06/01 00:49:32;;;;;;;3.70;1.33;;;22.00;58.10;;;;;;5053332;28;20206;-78
2022/06/01 00:52:00;;;;;;;1.63;0.98;;;22.00;58.30;;;;;;5053250;28;20202;-78
2022/06/01 00:54:29;;;;;;;5.82;0.90;;;22.00;58.30;;;;;;5053049;28;20703;-78
2022/06/01 00:57:00;;;;;;;2.95;0.93;;;22.00;58.30;;;;;;5053114;28;20226;-78
2022/06/01 00:59:33;;;;;;;4.20;0.73;;;22.00;58.30;;;;;;5053221;28;20271;-78
2022/06/01 01:02:02;;;;;;;8.68;1.02;;;22.00;58.30;;;;;;5053208;28;20188;-78
2022/06/01 01:04:31;;;;;;;3.45;0.95;;;22.00;58.30;;;;;;5052786;28;20228;-78
2022/06/01 01:07:03;;;;;;;2.17;0.68;;;22.00;58.30;;;;;;5052776;28;20656;-78
2022/06/01 01:09:32;;;;;;;3.70;1.17;;;22.00;58.30;;;;;;5053266;28;20303;-78
2022/06/01 01:12:05;;;;;;;3.63;1.00;;;22.00;58.40;;;;;;5055291;28;20562;-78
2022/06/01 01:14:34;;;;;;;1.85;1.10;;;22.00;58.50;;;;;;5056902;28;20580;-78
2022/06/01 01:17:02;;;;;;;1.85;1.30;;;22.00;58.70;;;;;;5056511;28;20216;-78
2022/06/01 01:19:35;;;;;;;2.40;0.90;;;22.00;58.80;;;;;;5056855;28;20226;-78
2022/06/01 01:22:14;;;;;;;2.20;1.17;;;22.00;58.90;;;;;;5056581;28;20215;-78
2022/06/01 01:24:51;;;;;;;3.30;0.80;;;22.00;58.90;;;;;;5056357;28;20699;-78
2022/06/01 01:27:19;;;;;;;5.75;1.17;;;22.00;59.00;;;;;;5056725;28;20204;-78
2022/06/01 01:29:47;;;;;;;4.32;1.10;;;22.00;59.20;;;;;;5056584;28;20202;-78
2022/06/01 01:32:14;;;;;;;10.32;1.30;;;22.00;59.30;;;;;;5056499;28;20224;-78
2022/06/01 01:34:42;;;;;;;3.00;0.80;;;22.00;59.30;;;;;;5056422;28;20216;-79
2022/06/01 01:37:14;;;;;;;4.32;1.20;;;22.00;59.90;;;;;;5056100;28;20306;-79
2022/06/01 01:39:41;;;;;;;5.93;1.35;;;22.00;59.40;;;;;;5056129;28;20188;-79
2022/06/01 01:42:08;;;;;;;1.17;0.93;;;22.00;59.50;;;;;;5056087;28;20236;-79
2022/06/01 01:44:43;;;;;;;1.40;0.95;;;22.00;59.50;;;;;;5056230;28;20246;-79
2022/06/01 01:47:11;;;;;;;5.63;1.55;;;22.00;59.50;;;;;;5056399;28;20184;-79
2022/06/01 01:49:39;;;;;;;7.80;1.55;;;22.00;59.60;;;;;;5056437;28;20208;-79
2022/06/01 01:52:08;;;;;;;3.25;1.30;;;22.00;59.70;;;;;;5056321;28;20227;-79
2022/06/01 01:54:45;;;;;;;3.97;1.13;;;22.00;59.80;;;;;;5056136;28;20228;-79
2022/06/01 01:57:31;;;;;;;2.92;0.90;;;22.00;59.80;;;;;;5056751;28;20299;-79
2022/06/01 02:00:07;;;;;;;3.15;1.10;;;22.00;59.80;;;;;;5055701;28;20199;-79
2022/06/01 02:02:41;;;;;;;4.00;1.30;;;22.00;59.90;;;;;;5056086;28;20191;-79
2022/06/01 02:08:08;;;;;;;3.40;1.30;;;22.00;60.10;;;;;;5033782;28;20180;-79
2022/06/01 02:13:21;;;;;;;0.80;0.80;;;22.00;60.20;;;;;;5059126;28;20544;-79
2022/06/01 02:15:52;;;;;;;3.25;0.82;;;21.90;60.20;;;;;;5058904;28;20220;-79
2022/06/01 02:18:23;;;;;;;0.93;0.93;;;22.00;60.30;;;;;;5058731;28;20180;-79
2022/06/01 02:20:54;;;;;;;1.13;1.02;;;21.90;60.20;;;;;;5059064;28;20277;-79
2022/06/01 02:23:22;;;;;;;2.00;0.90;;;22.00;60.30;;;;;;5057791;28;20291;-79
2022/06/01 02:25:50;;;;;;;3.42;1.10;;;21.90;60.40;;;;;;5060008;28;20220;-79
2022/06/01 02:28:18;;;;;;;1.95;0.90;;;21.90;60.40;;;;;;5059391;28;20200;-79
2022/06/01 02:30:45;;;;;;;2.40;0.80;;;21.90;60.40;;;;;;5058615;28;20627;-79
2022/06/01 02:33:19;;;;;;;1.17;1.08;;;21.90;60.40;;;;;;5056725;28;20246;-79
2022/06/01 02:35:50;;;;;;;1.13;1.00;;;21.90;60.40;;;;;;5057614;28;20633;-79
2022/06/01 02:38:22;;;;;;;2.97;0.90;;;21.90;60.50;;;;;;5056032;28;20204;-79
2022/06/01 02:40:48;;;;;;;1.75;1.08;;;21.90;60.50;;;;;;5056271;28;20190;-79
2022/06/01 02:43:16;;;;;;;1.52;1.17;;;21.90;60.50;;;;;;5055536;28;20207;-79
2022/06/01 02:45:43;;;;;;;1.17;1.17;;;21.90;60.50;;;;;;5055501;28;20770;-79
2022/06/01 02:48:11;;;;;;;1.05;1.00;;;21.90;60.60;;;;;;5056257;28;20198;-79
2022/06/01 02:50:39;;;;;;;1.67;1.25;;;21.90;60.60;;;;;;5056058;28;20291;-79
2022/06/01 02:53:06;;;;;;;12.70;1.70;;;21.90;60.60;;;;;;5055673;28;20206;-79
2022/06/01 02:55:33;;;;;;;1.38;1.33;;;21.90;60.70;;;;;;5055530;28;20220;-79
2022/06/01 02:58:01;;;;;;;4.65;1.55;;;21.90;60.80;;;;;;5055197;28;20220;-79
2022/06/01 03:00:30;;;;;;;2.33;1.20;;;21.90;61.60;;;;;;5055782;28;20291;-79
2022/06/01 03:03:00;;;;;;;4.60;1.50;;;21.90;60.90;;;;;;5056418;28;20200;-79
2022/06/01 03:05:29;;;;;;;16.88;2.28;;;22.00;61.00;;;;;;5056421;28;20593;-79
2022/06/01 03:07:58;;;;;;;9.63;2.00;;;21.90;61.00;;;;;;5057359;28;20200;-79
2022/06/01 03:10:25;;;;;;;7.72;1.85;;;22.00;61.20;;;;;;5057267;28;20299;-79
2022/06/01 03:12:53;;;;;;;12.30;1.73;;;21.90;61.10;;;;;;5056003;28;20547;-79
2022/06/01 03:15:22;;;;;;;1.63;1.23;;;21.90;61.00;;;;;;5055484;28;20251;-79
2022/06/01 03:17:49;;;;;;;6.45;1.60;;;21.90;61.00;;;;;;5057129;28;20263;-79
2022/06/01 03:20:19;;;;;;;4.65;1.30;;;21.90;61.00;;;;;;5057286;28;20268;-79
2022/06/01 03:22:46;;;;;;;4.57;1.98;;;21.90;61.00;;;;;;5056569;28;20291;-79
2022/06/01 03:25:18;;;;;;;1.83;1.40;;;21.90;61.00;;;;;;5057345;28;20227;-79
2022/06/01 03:27:46;;;;;;;4.07;1.60;;;21.90;61.10;;;;;;5058012;28;20519;-79
2022/06/01 03:30:16;;;;;;;7.57;1.75;;;21.90;61.20;;;;;;5058382;28;20196;-79
2022/06/01 03:32:44;;;;;;;6.07;1.67;;;21.90;61.20;;;;;;5055153;28;20640;-79
2022/06/01 03:35:11;;;;;;;4.63;1.77;;;21.90;61.30;;;;;;5057627;28;20295;-79
2022/06/01 03:37:38;;;;;;;2.17;1.70;;;21.90;61.30;;;;;;5056016;28;20871;-79
2022/06/01 03:40:06;;;;;;;4.30;1.95;;;21.90;61.30;;;;;;5054921;28;20290;-79
2022/06/01 03:42:35;;;;;;;2.85;1.98;;;21.90;61.30;;;;;;5058589;28;20246;-80
2022/06/01 03:47:48;;;;;;;4.95;1.80;;;21.90;61.40;;;;;;5057077;28;20222;-80
2022/06/01 03:50:16;;;;;;;6.55;1.90;;;21.90;61.60;;;;;;5055963;28;20200;-79
2022/06/01 03:52:44;;;;;;;7.60;1.98;;;21.90;61.60;;;;;;5056259;28;20674;-79
2022/06/01 03:55:10;;;;;;;12.13;2.13;;;21.90;61.50;;;;;;5055166;28;20251;-79
2022/06/01 03:57:39;;;;;;;4.70;1.67;;;21.90;61.60;;;;;;5054719;28;20303;-79
2022/06/01 04:00:07;;;;;;;2.92;1.85;;;21.90;61.70;;;;;;5054526;28;20207;-79
2022/06/01 04:02:34;;;;;;;3.25;1.88;;;21.90;61.70;;;;;;5056326;28;20611;-79
2022/06/01 04:05:01;;;;;;;6.63;1.83;;;21.90;61.80;;;;;;5055041;28;20238;-79
2022/06/01 04:07:28;;;;;;;8.32;2.15;;;21.90;61.80;;;;;;5056345;28;20286;-79
2022/06/01 04:09:54;;;;;;;5.60;1.98;;;21.90;61.80;;;;;;5056659;28;20234;-79
2022/06/01 04:12:23;;;;;;;5.68;2.10;;;21.90;61.90;;;;;;5054934;28;20641;-79
2022/06/01 04:14:51;;;;;;;9.00;2.00;;;21.90;61.90;;;;;;5057329;28;20643;-82
2022/06/01 04:17:18;;;;;;;8.57;1.90;;;21.90;62.00;;;;;;5057998;28;20259;-82
2022/06/01 04:19:45;;;;;;;9.93;2.53;;;21.90;62.00;;;;;;5057267;28;20283;-80
2022/06/01 04:22:14;;;;;;;5.90;3.05;;;21.90;62.00;;;;;;5056217;28;20626;-81
2022/06/01 04:24:41;;;;;;;5.47;4.93;;;21.90;61.80;;;;;;5056482;28;20307;-80
2022/06/01 04:27:09;;;;;;;9.35;7.75;;;21.80;61.20;;;;;;5056897;28;20195;-79
2022/06/01 04:29:36;;;;;;;10.77;9.52;;;21.80;61.40;;;;;;5058999;28;20321;-79
2022/06/01 04:32:08;;;;;;;16.27;11.43;;;21.70;60.60;;;;;;5059711;28;20303;-79
2022/06/01 04:34:35;;;;;;;13.30;9.98;;;21.60;59.80;;;;;;5057866;28;20310;-78
2022/06/01 04:37:02;;;;;;;10.40;9.40;;;21.50;59.50;;;;;;5054500;28;20695;-79
2022/06/01 04:39:29;;;;;;;8.00;7.20;;;21.50;59.20;;;;;;5054094;28;20204;-79
2022/06/01 04:41:56;;;;;;;6.55;5.95;;;21.50;58.90;;;;;;5054068;28;20625;-80
2022/06/01 04:44:23;;;;;;;11.40;6.10;;;21.40;58.50;;;;;;5054147;28;20255;-80
2022/06/01 04:46:50;;;;;;;;;;;21.40;58.30;;;;;;5056251;28;20705;-79
2022/06/01 04:49:18;;;;;;;;;;;21.40;58.30;;;;;;5060374;28;20392;-76
2022/06/01 04:51:44;;;;;;;;;;;21.30;58.20;;;;;;5057884;28;19927;-75
2022/06/01 04:54:11;;;;;;;;;;;21.30;58.40;;;;;;5057708;28;20003;-74
2022/06/01 04:56:38;;;;;;;;;;;21.20;58.30;;;;;;5057705;28;19921;-74
2022/06/01 04:59:04;;;;;;;;;;;21.20;58.40;;;;;;5057605;28;20007;-74
2022/06/01 05:01:31;;;;;;;;;;;21.20;58.40;;;;;;5057774;28;20019;-74
2022/06/01 05:03:58;;;;;;;;;;;21.20;58.40;;;;;;5057321;28;19960;-75
2022/06/01 05:06:26;;;;;;;;;;;21.20;58.40;;;;;;5057367;28;20429;-74
2022/06/01 05:08:52;;;;;;;;;;;21.20;58.20;;;;;;5057493;28;20015;-75
2022/06/01 05:11:20;;;;;;;;;;;21.20;58.30;;;;;;5057429;28;19921;-75
2022/06/01 05:13:46;;;;;;;;;;;21.20;58.30;;;;;;5057362;28;19920;-75
2022/06/01 05:16:13;;;;;;;;;;;21.20;58.40;;;;;;5057359;28;19921;-74
2022/06/01 05:18:40;;;;;;;;;;;21.20;58.40;;;;;;5057235;28;19921;-74
2022/06/01 05:21:06;;;;;;;;;;;21.20;58.40;;;;;;5056938;28;20445;-74
2022/06/01 05:23:34;;;;;;;;;;;21.20;58.40;;;;;;5057150;28;19931;-74
2022/06/01 05:26:01;;;;;;;;;;;21.20;58.40;;;;;;5057158;28;19920;-74
2022/06/01 05:28:29;;;;;;;;;;;21.20;58.40;;;;;;5057103;28;20018;-74
2022/06/01 05:30:59;;;;;;;;;;;21.20;58.40;;;;;;5056745;28;20391;-74
2022/06/01 05:33:26;;;;;;;;;;;21.20;58.40;;;;;;5056720;28;19921;-74
2022/06/01 05:35:52;;;;;;;;;;;21.20;58.40;;;;;;5056896;28;19964;-74
2022/06/01 05:38:19;;;;;;;;;;;21.20;58.40;;;;;;5056860;28;19927;-74
2022/06/01 05:40:47;;;;;;;;;;;21.20;58.40;;;;;;5056855;28;19927;-74
2022/06/01 05:43:15;;;;;;;;;;;21.20;58.40;;;;;;5056836;28;19920;-74
2022/06/01 05:45:42;;;;;;;;;;;21.20;58.40;;;;;;5056701;28;20007;-74
2022/06/01 05:48:09;;;;;;;;;;;21.20;58.30;;;;;;5056721;28;20299;-74
2022/06/01 05:50:36;;;;;;;;;;;21.20;58.30;;;;;;5056738;28;19927;-74
2022/06/01 05:53:03;;;;;;;;;;;21.20;58.30;;;;;;5056691;28;19960;-74
2022/06/01 05:55:29;;;;;;;;;;;21.20;58.30;;;;;;5056814;28;19921;-74
2022/06/01 05:57:58;;;;;;;;;;;21.20;58.30;;;;;;5056285;28;19927;-74
2022/06/01 06:00:24;;;;;;;;;;;21.20;58.30;;;;;;5056520;28;19920;-74
2022/06/01 06:02:51;;;;;;;;;;;21.20;58.20;;;;;;5056502;28;19956;-74
2022/06/01 06:08:02;;;;;;;;;;;21.20;58.20;;;;;;5056196;28;19924;-74
2022/06/01 06:10:29;;;;;;;;;;;21.20;58.20;;;;;;5056024;28;19963;-74
2022/06/01 06:12:55;;;;;;;;;;;21.20;58.20;;;;;;5055975;28;20019;-74
2022/06/01 06:15:23;;;;;;;;;;;21.20;58.20;;;;;;5056103;28;20003;-74
2022/06/01 06:17:50;;;;;;;;;;;21.20;58.20;;;;;;5055778;28;19927;-74
2022/06/01 06:20:17;;;;;;;;;;;21.20;58.10;;;;;;5056109;28;20015;-74
2022/06/01 06:22:43;;;;;;;;;;;21.20;58.10;;;;;;5055788;28;19920;-74
2022/06/01 06:25:10;;;;;;;;;;;21.30;58.20;;;;;;5056015;28;19920;-74
2022/06/01 06:27:37;;;;;;;;;;;21.30;58.10;;;;;;5055859;28;20403;-74
2022/06/01 06:30:04;;;;;;;;;;;21.30;58.10;;;;;;5056276;28;19960;-74
2022/06/01 06:32:32;;;;;;;;;;;21.30;58.10;;;;;;5055960;28;20435;-74
2022/06/01 06:34:58;;;;;;;;;;;21.30;58.10;;;;;;5055545;28;19924;-74
2022/06/01 06:37:25;;;;;;;;;;;21.30;58.10;;;;;;5055764;28;19920;-74
2022/06/01 06:39:52;;;;;;;;;;;21.30;58.10;;;;;;5056115;28;20031;-74
2022/06/01 06:42:18;;;;;;;;;;;21.30;58.10;;;;;;5055920;28;19925;-74
2022/06/01 06:44:45;;;;;;;;;;;21.30;58.10;;;;;;5055336;28;19926;-75
2022/06/01 06:47:12;;;;;;;;;;;21.30;58.10;;;;;;5055360;28;20363;-75
2022/06/01 06:49:40;;;;;;;;;;;21.30;58.00;;;;;;5055446;28;20392;-75
2022/06/01 06:52:07;;;;;;;;;;;21.30;58.00;;;;;;5055619;28;19920;-75
2022/06/01 06:54:34;;;;;;;;;;;21.30;57.90;;;;;;5055169;28;19974;-75
2022/06/01 06:57:01;;;;;;;;;;;21.30;57.80;;;;;;5055254;28;19920;-75
2022/06/01 06:59:27;;;;;;;;;;;21.30;57.80;;;;;;5055367;28;19921;-75
2022/06/01 07:01:54;;;;;;;;;;;21.30;57.80;;;;;;5055064;28;19970;-75
2022/06/01 07:04:21;;;;;;;;;;;21.30;57.70;;;;;;5054984;28;19964;-75
2022/06/01 07:06:49;;;;;;;;;;;21.30;57.70;;;;;;5054936;28;19968;-75
2022/06/01 07:09:15;;;;;;;;;;;21.30;57.70;;;;;;5054292;28;20007;-75
2022/06/01 07:11:42;;;;;;;;;;;21.30;57.70;;;;;;5055174;28;19920;-75
2022/06/01 07:14:09;;;;;;;;;;;21.30;57.70;;;;;;5054773;28;19970;-75
2022/06/01 07:16:36;;;;;;;;;;;21.40;57.80;;;;;;5055055;28;19974;-75
2022/06/01 07:19:04;;;;;;;;;;;21.40;57.80;;;;;;5055210;28;19927;-75
2022/06/01 07:21:31;;;;;;;;;;;21.30;57.70;;;;;;5054945;28;19920;-75
2022/06/01 07:23:59;;;;;;;;;;;21.40;57.80;;;;;;5054862;28;19955;-75
2022/06/01 07:26:26;;;;;;;;;;;21.40;57.80;;;;;;5054893;28;19927;-75
2022/06/01 07:28:53;;;;;;;;;;;21.40;57.80;;;;;;5054839;28;20291;-75
2022/06/01 07:31:20;;;;;;;;;;;21.40;57.80;;;;;;5054490;28;19920;-75
2022/06/01 07:33:47;;;;;;;;;;;21.40;57.80;;;;;;5054731;28;19921;-75
2022/06/01 07:36:15;;;;;;;;;;;21.40;57.80;;;;;;5054691;28;19928;-75
2022/06/01 07:44:14;;;;;;;;;;;21.40;57.90;;;;;;5054807;28;19986;-75
2022/06/01 07:46:41;;;;;;;;;;;21.40;57.80;;;;;;5054252;28;20332;-75
2022/06/01 07:49:08;;;;;;;;;;;21.40;57.80;;;;;;5054210;28;20456;-75
2022/06/01 07:51:34;;;;;;;;;;;21.40;57.80;;;;;;5054473;28;19928;-75
2022/06/01 07:54:01;;;;;;;;;;;21.40;57.90;;;;;;5054049;28;19920;-75
2022/06/01 07:56:29;;;;;;;;;;;21.40;57.80;;;;;;5054384;28;20003;-75
2022/06/01 07:58:56;;;;;;;;;;;21.40;58.10;;;;;;5054273;28;20007;-75
2022/06/01 08:01:25;;;;;;;;;;;21.40;57.80;;;;;;5054326;28;20004;-75
2022/06/01 08:03:52;;;;;;;;;;;21.40;57.80;;;;;;5077927;22;20326;-76
2022/06/01 08:06:18;;;;;;;;;;;21.40;57.80;;;;;;5054244;28;20107;-76
2022/06/01 08:08:45;;;;;;;;;;;21.40;57.90;;;;;;5054217;28;20011;-75
2022/06/01 08:11:12;;;;;;;;;;;21.40;57.80;;;;;;5054142;28;19921;-75
2022/06/01 08:13:39;;;;;;;;;;;21.40;57.90;;;;;;5054053;28;19956;-75
2022/06/01 08:16:06;;;;;;;;;;;21.40;57.80;;;;;;5054105;28;19920;-76
2022/06/01 08:18:32;;;;;;;;;;;21.40;57.90;;;;;;5054049;28;19943;-76
2022/06/01 08:20:59;;;;;;;;;;;21.40;57.80;;;;;;5054077;28;20015;-76
2022/06/01 08:23:27;;;;;;;;;;;21.40;57.90;;;;;;5054019;28;20007;-76
2022/06/01 08:25:54;;;;;;;;;;;21.40;57.80;;;;;;5054083;28;19927;-75
2022/06/01 08:28:21;;;;;;;;;;;21.40;57.90;;;;;;5054089;28;20007;-75
2022/06/01 08:30:50;;;;;;;;;;;21.40;57.80;;;;;;5054133;28;19956;-75
2022/06/01 08:33:17;;;;;;;;;;;21.40;57.80;;;;;;5053811;28;19925;-76
2022/06/01 08:35:46;;;;;;;;;;;21.40;57.80;;;;;;5053930;28;20015;-75
2022/06/01 08:38:13;;;;;;;;;;;21.40;57.80;;;;;;5053546;28;19927;-75
2022/06/01 08:40:50;;;;;;;;;;;21.40;57.80;;;;;;5053555;28;20269;-75
2022/06/01 08:43:18;;;;;;;;;;;21.40;57.80;;;;;;5053881;28;20006;-76
2022/06/01 08:45:45;;;;;;;;;;;21.40;57.80;;;;;;5053855;28;19921;-75
2022/06/01 08:48:16;;;;;;;;;;;21.40;57.80;;;;;;5053841;28;19927;-75
2022/06/01 08:50:43;;;;;;;;;;;21.40;57.90;;;;;;5053866;28;19921;-75
2022/06/01 08:53:10;;;;;;;;;;;21.50;57.90;;;;;;5053719;28;19963;-76
2022/06/01 08:55:45;;;;;;;;;;;21.50;57.90;;;;;;5053740;28;20295;-75
2022/06/01 08:58:14;;;;;;;;;;;21.40;57.80;;;;;;5053668;28;19921;-75
2022/06/01 09:00:43;;;;;;;;;;;21.40;57.80;;;;;;5053944;28;19921;-75
2022/06/01 09:03:13;;;;;;;;;;;21.40;57.80;;;;;;5053498;28;19925;-76
2022/06/01 09:05:44;;;;;;;;;;;21.50;57.90;;;;;;5053729;28;20269;-76
2022/06/01 09:08:12;;;;;;;;;;;21.50;57.90;;;;;;5053646;28;19935;-75
2022/06/01 09:10:43;;;;;;;;;;;21.50;57.90;;;;;;5053599;28;19920;-75
2022/06/01 09:13:11;;;;;;;;;;;21.50;57.90;;;;;;5053552;28;19920;-76
2022/06/01 09:15:43;;;;;;;;;;;21.50;57.90;;;;;;5053568;28;19921;-77
2022/06/01 09:18:10;;;;;;;;;;;21.50;57.90;;;;;;5053569;28;20015;-78
2022/06/01 09:23:30;;;;;;;;;;;21.50;57.90;;;;;;5017637;28;19995;-78
2022/06/01 09:25:57;;;;;;;;;;;21.50;58.20;;;;;;5053562;28;19925;-78
2022/06/01 09:28:25;;;;;;;;;;;21.50;57.90;;;;;;5053398;28;19921;-78
2022/06/01 09:30:56;;;;;;;;;;;21.50;57.90;;;;;;5053489;28;19927;-78
2022/06/01 09:33:24;;;;;;;;;;;21.50;57.90;;;;;;5055693;28;19927;-78
2022/06/01 09:36:02;;;;;;;;;;;21.50;57.90;;;;;;5057145;28;19920;-78
2022/06/01 09:38:37;;;;;;;;;;;21.50;57.90;;;;;;5057148;28;20286;-78
2022/06/01 09:41:05;;;;;;;;;;;21.50;57.90;;;;;;5056731;28;19927;-78
2022/06/01 09:43:32;;;;;;;;;;;21.50;57.90;;;;;;5056896;28;19921;-78
2022/06/01 09:45:59;;;;;;;;;;;21.50;57.90;;;;;;5056818;28;20356;-78
2022/06/01 09:48:28;;;;;;;;;;;21.50;57.90;;;;;;5056871;28;20011;-78
2022/06/01 09:51:03;;;;;;;;;;;21.50;57.90;;;;;;5056823;28;19920;-78
2022/06/01 09:53:36;;;;;;;;;;;21.50;57.90;;;;;;5056462;28;20348;-78
2022/06/01 09:56:04;;;;;;;;;;;21.50;57.90;;;;;;5056469;28;20386;-78
2022/06/01 10:06:52;;;;;;;;;;;21.50;57.90;;;;;;5058707;28;19963;-81
2022/06/01 10:09:21;;;;;;;;;;;21.50;57.90;;;;;;5059062;28;19921;-79
2022/06/01 10:11:51;;;;;;;;;;;21.60;58.00;;;;;;5060368;28;19921;-80
2022/06/01 10:14:19;;;;;;;;;;;21.60;58.00;;;;;;5060313;28;19928;-80
2022/06/01 10:17:13;;;;;;;;;;;21.60;58.00;;;;;;5059918;28;19924;-79
2022/06/01 10:19:42;;;;;;;;;;;21.60;58.00;;;;;;5059771;28;20340;-79
2022/06/01 10:22:12;;;;;;;;;;;21.60;58.00;;;;;;5062224;28;19975;-83
2022/06/01 10:24:43;;;;;;;;;;;21.60;58.00;;;;;;5059950;28;19971;-79
2022/06/01 10:27:11;;;;;;;;;;;21.60;58.00;;;;;;5058270;28;19921;-79
2022/06/01 10:29:41;;;;;;;;;;;21.70;58.10;;;;;;5058783;28;19921;-79
2022/06/01 10:32:10;;;;;;;;;;;21.70;58.10;;;;;;5059237;28;19970;-79
2022/06/01 10:34:39;;;;;;;;;;;21.70;58.10;;;;;;5058508;28;19921;-79
2022/06/01 10:37:12;;;;;;;;;;;21.70;58.20;;;;;;5058825;28;20003;-78
2022/06/01 10:39:41;;;;;;;;;;;21.70;58.40;;;;;;5059059;28;19921;-81
2022/06/01 10:42:11;;;;;;;;;;;21.70;58.50;;;;;;5059282;28;20126;-80
2022/06/01 10:44:42;;;;;;;;;;;21.70;58.60;;;;;;5059322;28;19999;-81
2022/06/01 10:47:12;;;;;;;;;;;21.70;58.60;;;;;;5059649;28;19920;-80
2022/06/01 10:49:43;;;;;;;;;;;21.70;58.80;;;;;;5060597;28;19921;-78
2022/06/01 10:52:17;;;;;;;;;;;21.70;58.90;;;;;;5060732;28;20019;-78
2022/06/01 10:54:46;;;;;;;;;;;21.70;59.00;;;;;;5060388;28;19959;-79
2022/06/01 10:57:17;;;;;;;;;;;21.80;59.10;;;;;;5060637;28;20342;-79
2022/06/01 10:59:46;;;;;;;;;;;21.80;59.20;;;;;;5059681;28;19971;-78
2022/06/01 11:02:18;;;;;;;;;;;21.80;59.40;;;;;;5055590;28;19920;-77
2022/06/01 11:04:48;;;;;;;;;;;21.80;59.40;;;;;;5056842;28;20414;-77
2022/06/01 11:07:26;;;;;;;;;;;21.80;59.50;;;;;;5057401;28;19928;-77
2022/06/01 11:10:00;;;;;;;;;;;21.80;59.60;;;;;;5058387;28;19920;-79
2022/06/01 11:12:31;;;;;;;;;;;21.80;59.60;;;;;;5058210;28;20315;-79
2022/06/01 11:15:06;;;;;;;;;;;21.80;59.80;;;;;;5057818;28;20007;-79
2022/06/01 11:17:37;;;;;;;;;;;21.80;60.00;;;;;;5056391;28;19920;-78
2022/06/01 11:20:12;;;;;;;;;;;21.80;60.10;;;;;;5056716;28;19920;-79
2022/06/01 11:22:51;;;;;;;;;;;21.90;60.40;;;;;;5056899;28;19964;-80
2022/06/01 11:25:19;;;;;;;;;;;21.90;60.50;;;;;;5057557;28;19921;-79
2022/06/01 11:27:52;;;;;;;;;;;21.90;60.60;;;;;;5057401;28;19960;-78
2022/06/01 11:30:21;;;;;;;;;;;21.90;60.70;;;;;;5058732;28;19927;-78
2022/06/01 11:32:51;;;;;;;;;;;21.90;60.80;;;;;;5058639;28;19921;-79
2022/06/01 11:35:21;;;;;;;;;;;21.90;61.00;;;;;;5058862;28;20007;-77
2022/06/01 11:37:52;;;;;;;;;;;21.90;61.10;;;;;;5058721;28;19921;-78
2022/06/01 11:40:24;;;;;;;;;;;21.90;61.20;;;;;;5060285;28;19964;-77
2022/06/01 11:42:55;;;;;;;;;;;21.80;61.30;;;;;;5062884;28;20376;-79
2022/06/01 11:45:26;;;;;;;;;;;21.90;61.50;;;;;;5063475;28;19932;-79
2022/06/01 11:47:55;;;;;;;;;;;21.90;61.70;;;;;;5063453;28;19928;-79
2022/06/01 11:50:25;;;;;;;;;;;21.90;61.80;;;;;;5061166;28;19947;-78
2022/06/01 11:52:54;;;;;;;;;;;21.90;62.00;;;;;;5060693;28;20407;-79
2022/06/01 11:55:24;;;;;;;;;;;21.90;62.10;;;;;;5060492;28;19943;-79
2022/06/01 11:57:53;;;;;;;;;;;21.80;62.10;;;;;;5061892;28;19967;-79
2022/06/01 12:00:21;;;;;;;;;;;21.90;62.30;;;;;;5061313;28;19925;-78
2022/06/01 12:02:51;;;;;;;;;;;21.90;62.40;;;;;;5060833;28;19927;-78
2022/06/01 12:05:23;;;;;;;;;;;21.90;63.20;;;;;;5060109;28;19974;-82
2022/06/01 12:07:51;;;;;;;;;;;21.90;62.70;;;;;;5060784;28;19921;-84
2022/06/01 12:10:24;;;;;;;;;;;21.90;62.80;;;;;;5059528;28;19920;-83
2022/06/01 12:13:02;;;;;;;;;;;21.90;62.90;;;;;;5064515;28;19925;-80
2022/06/01 12:15:32;;;;;;;;;;;21.80;62.90;;;;;;5062814;28;20008;-79
2022/06/01 12:18:05;;;;;;;;;;;21.90;63.10;;;;;;5062048;28;19943;-80
2022/06/01 12:20:47;;;;;;;;;;;21.90;63.40;;;;;;5063477;28;19991;-79
2022/06/01 12:29:38;;;;;;;;;;;21.90;63.80;;;;;;5061472;28;19924;-77
2022/06/01 12:32:09;;;;;;;;;;;21.90;63.80;;;;;;5061007;28;20403;-78
2022/06/01 12:34:40;;;;;;;;;;;21.90;63.80;;;;;;5060552;28;19920;-78
2022/06/01 12:37:09;;;;;;;;;;;21.90;63.80;;;;;;5061096;28;19921;-78
2022/06/01 12:39:42;;;;;;;;;;;21.90;63.80;;;;;;5061566;28;19921;-79
2022/06/01 12:42:10;;;;;;;;;;;21.90;63.80;;;;;;5056644;28;19964;-79
2022/06/01 12:44:38;;;;;;;;;;;21.90;63.90;;;;;;5056423;28;19920;-80
2022/06/01 12:47:05;;;;;;;;;;;21.90;64.10;;;;;;5056190;28;19920;-79
2022/06/01 12:49:33;;;;;;;;;;;21.90;64.20;;;;;;5055328;28;19924;-83
2022/06/01 12:52:03;;;;;;;;;;;21.90;64.40;;;;;;5058758;28;19921;-83
2022/06/01 12:54:32;;;;;;;;;;;21.90;64.40;;;;;;5059467;28;19921;-83
2022/06/01 12:56:59;;;;;;;;;;;21.90;65.10;;;;;;5056393;28;20007;-83
2022/06/01 12:59:28;;;;;;;;;;;21.90;64.30;;;;;;5057412;28;20280;-82
2022/06/01 13:01:58;;;;;;;;;;;21.90;64.20;;;;;;5056107;28;19974;-82
2022/06/01 13:04:25;;;;;;;;;;;21.90;64.10;;;;;;5055755;28;19921;-83
2022/06/01 13:06:52;;;;;;;;;;;21.90;64.10;;;;;;5056567;28;20008;-83
2022/06/01 13:09:22;;;;;;;;;;;21.80;63.90;;;;;;5058742;28;19920;-84
2022/06/01 13:11:56;;;;;;;;;;;21.80;63.90;;;;;;5060140;28;20011;-84
2022/06/01 13:14:24;;;;;;;;;;;21.80;63.90;;;;;;5060413;28;19920;-85
2022/06/01 13:16:51;;;;;;;;;;;21.80;64.10;;;;;;5059661;28;19924;-85
2022/06/01 13:19:19;;;;;;;;;;;21.80;64.20;;;;;;5058054;28;20015;-85
2022/06/01 13:21:47;;;;;;;;;;;21.90;64.40;;;;;;5058277;28;20350;-84
2022/06/01 13:24:14;;;;;;;;;;;21.90;64.50;;;;;;5060766;28;20007;-84
2022/06/01 13:26:45;;;;;;;;;;;21.90;64.50;;;;;;5059753;28;20384;-84
2022/06/01 13:29:16;;;;;;;;;;;21.90;64.50;;;;;;5060329;28;19920;-84
2022/06/01 13:31:43;;;;;;;;;;;21.90;64.50;;;;;;5058417;28;20466;-84
2022/06/01 13:34:20;;;;;;;;;;;21.90;64.50;;;;;;5058861;28;20003;-84
2022/06/01 13:36:48;;;;;;;;;;;21.90;64.50;;;;;;5057641;28;19935;-85
2022/06/01 13:39:14;;;;;;;;;;;21.90;64.60;;;;;;5058398;28;20359;-84
2022/06/01 13:41:52;;;;;;;;;;;21.90;64.60;;;;;;5059717;28;19985;-84
2022/06/01 13:44:34;;;;;;;;;;;21.90;64.70;;;;;;5058912;28;20015;-84
2022/06/01 13:47:02;;;;;;;;;;;21.90;64.70;;;;;;5058909;28;19996;-84
2022/06/01 13:49:28;;;;;;;;;;;22.00;64.90;;;;;;5059120;28;20016;-84
2022/06/01 13:51:57;;;;;;;;;;;21.90;64.80;;;;;;5058936;28;20414;-83
2022/06/01 13:54:31;;;;;;;;;;;21.90;64.90;;;;;;5057186;28;19921;-84
2022/06/01 13:57:03;;;;;;;;;;;21.90;64.90;;;;;;5057073;28;19920;-86
2022/06/01 13:59:32;;;;;;;;;;;21.90;64.90;;;;;;5057258;28;20368;-85
2022/06/01 14:02:01;;;;;;;;;;;22.00;65.00;;;;;;5057412;28;20371;-86
2022/06/01 14:04:30;;;;;;;;;;;22.00;65.10;;;;;;5058641;28;19921;-86
2022/06/01 14:07:02;;;;;;;;;;;22.00;65.10;;;;;;5058968;28;19921;-85
2022/06/01 14:09:29;;;;;;;;;;;22.00;65.20;;;;;;5058647;28;20003;-86
2022/06/01 14:11:57;;;;;;;;;;;22.00;65.10;;;;;;5056518;28;20287;-86
2022/06/01 14:14:27;;;;;;;;;;;21.90;65.00;;;;;;5056361;28;19924;-85
2022/06/01 14:16:55;;;;;;;;;;;21.90;65.00;;;;;;5061183;28;19971;-84
2022/06/01 14:19:22;;;;;;;;;;;21.90;64.90;;;;;;5060628;28;20003;-84
2022/06/01 14:21:51;;;;;;;;;;;21.90;64.80;;;;;;5056517;28;20011;-85
2022/06/01 14:24:17;;;;;;;;;;;21.90;64.80;;;;;;5057274;28;20007;-85
2022/06/01 14:29:29;;;;;;;;;;;21.80;64.60;;;;;;5060794;28;19931;-83